createdAt,value
2018-04-25T00:00:20.142Z,91.83
2018-04-25T00:01:20.351Z,91.07
2018-04-25T00:02:20.256Z,90.88
2018-04-25T00:03:20.317Z,91.93
2018-04-25T00:04:20.373Z,91.55
2018-04-25T00:05:20.439Z,91.17
2018-04-25T00:06:20.491Z,91.79
2018-04-25T00:07:20.552Z,91.79
2018-04-25T00:08:20.609Z,91.64
2018-04-25T00:09:20.671Z,91.83
2018-04-25T00:10:20.728Z,91.36
2018-04-25T00:11:20.787Z,91.27
2018-04-25T00:12:20.997Z,91.27
2018-04-25T00:13:20.905Z,91.07
2018-04-25T00:14:20.966Z,91.83
2018-04-25T00:15:21.024Z,91.98
2018-04-25T00:16:21.082Z,92.17
2018-04-25T00:17:21.142Z,93.12
2018-04-25T00:18:21.201Z,93.03
2018-04-25T00:19:21.260Z,92.46
2018-04-25T00:20:21.319Z,92.08
2018-04-25T00:21:21.377Z,92.22
2018-04-25T00:22:21.437Z,91.79
2018-04-25T00:23:21.495Z,91.98
2018-04-25T00:24:21.576Z,91.88
2018-04-25T00:25:21.613Z,92.74
2018-04-25T00:26:21.671Z,92.36
2018-04-25T00:27:21.731Z,93.12
2018-04-25T00:28:21.789Z,93.41
2018-04-25T00:29:21.848Z,92.55
2018-04-25T00:30:21.906Z,92.65
2018-04-25T00:31:21.966Z,92.74
2018-04-25T00:32:22.025Z,92.55
2018-04-25T00:33:22.084Z,92.46
2018-04-25T00:34:22.143Z,91.74
2018-04-25T00:35:22.203Z,91.98
2018-04-25T00:36:22.262Z,92.08
2018-04-25T00:37:22.320Z,92.27
2018-04-25T00:38:22.379Z,92.84
2018-04-25T00:39:22.436Z,92.08
2018-04-25T00:40:22.499Z,92.93
2018-04-25T00:41:22.555Z,93.12
2018-04-25T00:42:22.765Z,93.41
2018-04-25T00:43:22.672Z,92.65
2018-04-25T00:44:22.774Z,92.65
2018-04-25T00:45:22.790Z,92.93
2018-04-25T00:46:22.848Z,93.41
2018-04-25T00:47:22.907Z,93.88
2018-04-25T00:48:22.966Z,94.27
2018-04-25T00:49:23.026Z,93.88
2018-04-25T00:50:23.083Z,93.60
2018-04-25T00:51:23.141Z,93.41
2018-04-25T00:52:23.205Z,93.70
2018-04-25T00:53:23.258Z,93.12
2018-04-25T00:54:23.317Z,93.41
2018-04-25T00:55:23.377Z,94.37
2018-04-25T00:56:23.436Z,93.79
2018-04-25T00:57:23.495Z,93.98
2018-04-25T00:58:23.553Z,94.03
2018-04-25T00:59:23.615Z,94.32
2018-04-25T01:00:23.671Z,94.37
2018-04-25T01:01:23.730Z,94.89
2018-04-25T01:02:23.789Z,95.36
2018-04-25T01:03:23.849Z,95.56
2018-04-25T01:04:23.905Z,95.46
2018-04-25T01:05:23.965Z,95.46
2018-04-25T01:06:24.024Z,95.56
2018-04-25T01:07:24.086Z,95.46
2018-04-25T01:08:24.140Z,95.56
2018-04-25T01:09:24.199Z,95.36
2018-04-25T01:10:24.258Z,95.46
2018-04-25T01:11:24.316Z,95.56
2018-04-25T01:12:24.375Z,94.89
2018-04-25T01:13:24.433Z,94.79
2018-04-25T01:14:24.491Z,95.46
2018-04-25T01:15:24.703Z,94.98
2018-04-25T01:16:24.614Z,94.89
2018-04-25T01:17:24.667Z,94.60
2018-04-25T01:18:24.727Z,94.79
2018-04-25T01:19:24.794Z,95.27
2018-04-25T01:20:24.843Z,95.36
2018-04-25T01:21:24.903Z,96.03
2018-04-25T01:22:24.962Z,96.12
2018-04-25T01:23:25.021Z,96.32
2018-04-25T01:24:25.078Z,95.94
2018-04-25T01:25:25.137Z,95.84
2018-04-25T01:26:25.195Z,95.94
2018-04-25T01:27:25.253Z,95.36
2018-04-25T01:28:25.312Z,95.94
2018-04-25T01:29:25.371Z,95.46
2018-04-25T01:30:25.430Z,95.65
2018-04-25T01:31:25.643Z,95.36
2018-04-25T01:32:25.545Z,95.75
2018-04-25T01:33:25.605Z,95.94
2018-04-25T01:34:25.664Z,96.03
2018-04-25T01:35:25.723Z,95.94
2018-04-25T01:36:25.783Z,95.56
2018-04-25T01:37:25.839Z,96.03
2018-04-25T01:38:25.898Z,95.94
2018-04-25T01:39:25.959Z,96.03
2018-04-25T01:40:26.013Z,95.36
2018-04-25T01:41:26.073Z,96.03
2018-04-25T01:42:26.131Z,96.03
2018-04-25T01:43:26.191Z,95.56
2018-04-25T01:44:26.247Z,95.75
2018-04-25T01:45:39.052Z,95.94
2018-04-25T01:46:26.366Z,95.36
2018-04-25T01:47:26.425Z,95.84
2018-04-25T01:48:26.481Z,95.46
2018-04-25T01:49:26.546Z,95.75
2018-04-25T01:50:26.602Z,96.51
2018-04-25T01:51:26.659Z,96.03
2018-04-25T01:52:26.717Z,96.98
2018-04-25T01:53:26.776Z,96.41
2018-04-25T01:54:26.833Z,96.22
2018-04-25T01:55:26.893Z,96.70
2018-04-25T01:56:26.949Z,97.17
2018-04-25T01:57:27.010Z,96.80
2018-04-25T01:58:27.068Z,97.36
2018-04-25T01:59:27.127Z,97.08
2018-04-25T02:00:27.184Z,97.36
2018-04-25T02:01:27.243Z,97.08
2018-04-25T02:02:27.301Z,97.46
2018-04-25T02:03:27.360Z,97.27
2018-04-25T02:04:27.418Z,98.03
2018-04-25T02:05:27.477Z,97.41
2018-04-25T02:06:27.535Z,97.65
2018-04-25T02:07:27.598Z,97.65
2018-04-25T02:08:27.651Z,97.27
2018-04-25T02:09:27.712Z,97.46
2018-04-25T02:10:27.769Z,97.36
2018-04-25T02:11:27.827Z,96.84
2018-04-25T02:12:27.885Z,97.60
2018-04-25T02:13:27.943Z,97.08
2018-04-25T02:14:28.002Z,97.79
2018-04-25T02:15:28.061Z,98.03
2018-04-25T02:16:28.119Z,97.84
2018-04-25T02:17:28.182Z,97.65
2018-04-25T02:18:28.237Z,97.60
2018-04-25T02:19:28.294Z,97.79
2018-04-25T02:20:28.352Z,98.27
2018-04-25T02:21:28.411Z,97.41
2018-04-25T02:22:28.470Z,97.36
2018-04-25T02:23:28.677Z,97.60
2018-04-25T02:24:28.585Z,97.31
2018-04-25T02:25:28.643Z,97.51
2018-04-25T02:26:28.704Z,98.84
2018-04-25T02:27:28.761Z,98.74
2018-04-25T02:28:28.821Z,97.79
2018-04-25T02:29:28.877Z,98.08
2018-04-25T02:30:28.943Z,97.70
2018-04-25T02:31:28.994Z,97.70
2018-04-25T02:32:29.053Z,98.27
2018-04-25T02:33:29.111Z,98.27
2018-04-25T02:34:29.168Z,97.79
2018-04-25T02:35:29.228Z,98.27
2018-04-25T02:36:29.285Z,98.65
2018-04-25T02:37:29.345Z,98.46
2018-04-25T02:38:29.402Z,98.94
2018-04-25T02:39:29.459Z,98.55
2018-04-25T02:40:29.518Z,98.94
2018-04-25T02:41:29.576Z,98.46
2018-04-25T02:42:29.634Z,98.55
2018-04-25T02:43:29.694Z,98.84
2018-04-25T02:44:29.750Z,99.51
2018-04-25T02:45:29.808Z,99.41
2018-04-25T02:46:29.868Z,99.32
2018-04-25T02:47:29.929Z,98.74
2018-04-25T02:48:29.985Z,98.84
2018-04-25T02:49:30.046Z,98.74
2018-04-25T02:50:30.302Z,98.94
2018-04-25T02:51:30.159Z,99.13
2018-04-25T02:52:30.224Z,99.22
2018-04-25T02:53:30.277Z,98.55
2018-04-25T02:54:30.333Z,99.32
2018-04-25T02:55:30.391Z,99.32
2018-04-25T02:56:30.450Z,98.84
2018-04-25T02:57:30.509Z,99.41
2018-04-25T02:58:30.567Z,99.32
2018-04-25T02:59:30.626Z,99.22
2018-04-25T03:00:30.684Z,99.32
2018-04-25T03:01:30.743Z,99.51
2018-04-25T03:02:30.799Z,99.22
2018-04-25T03:03:30.857Z,99.60
2018-04-25T03:04:30.916Z,99.22
2018-04-25T03:05:30.973Z,99.32
2018-04-25T03:06:31.037Z,99.89
2018-04-25T03:07:31.092Z,99.99
2018-04-25T03:08:31.149Z,99.99
2018-04-25T03:09:31.516Z,99.99
2018-04-25T03:10:31.265Z,99.99
2018-04-25T03:11:31.362Z,99.99
2018-04-25T03:12:31.381Z,99.99
2018-04-25T03:13:31.459Z,99.99
2018-04-25T03:14:31.498Z,99.99
2018-04-25T03:15:31.557Z,99.99
2018-04-25T03:16:31.613Z,99.99
2018-04-25T03:17:31.671Z,99.99
2018-04-25T03:18:31.882Z,99.99
2018-04-25T03:19:31.789Z,99.99
2018-04-25T03:20:31.849Z,99.99
2018-04-25T03:21:31.906Z,99.99
2018-04-25T03:22:31.968Z,99.99
2018-04-25T03:23:32.021Z,99.99
2018-04-25T03:24:32.078Z,99.99
2018-04-25T03:25:32.135Z,99.99
2018-04-25T03:26:32.194Z,99.99
2018-04-25T03:27:32.253Z,99.99
2018-04-25T03:28:32.310Z,99.99
2018-04-25T03:29:32.371Z,99.99
2018-04-25T03:30:32.427Z,99.99
2018-04-25T03:31:32.485Z,99.99
2018-04-25T03:32:32.542Z,99.99
2018-04-25T03:33:32.603Z,99.99
2018-04-25T03:34:32.659Z,99.99
2018-04-25T03:35:32.719Z,99.99
2018-04-25T03:36:32.775Z,99.99
2018-04-25T03:37:32.836Z,99.99
2018-04-25T03:38:32.891Z,99.99
2018-04-25T03:39:32.951Z,99.89
2018-04-25T03:40:33.012Z,99.99
2018-04-25T03:41:33.066Z,99.99
2018-04-25T03:42:33.125Z,99.99
2018-04-25T03:43:33.182Z,99.99
2018-04-25T03:44:33.240Z,99.99
2018-04-25T03:45:33.299Z,99.99
2018-04-25T03:46:33.357Z,99.99
2018-04-25T03:47:33.415Z,99.99
2018-04-25T03:48:33.477Z,99.99
2018-04-25T03:49:33.532Z,99.99
2018-04-25T03:50:33.591Z,99.99
2018-04-25T03:51:33.652Z,99.99
2018-04-25T03:52:33.709Z,99.99
2018-04-25T03:53:33.764Z,99.99
2018-04-25T03:54:33.823Z,99.79
2018-04-25T03:55:33.880Z,99.99
2018-04-25T03:56:34.247Z,99.99
2018-04-25T03:57:33.998Z,99.99
2018-04-25T03:58:34.057Z,99.99
2018-04-25T03:59:34.114Z,99.99
2018-04-25T04:00:34.547Z,99.99
2018-04-25T04:01:34.233Z,99.99
2018-04-25T04:02:34.288Z,99.99
2018-04-25T04:03:34.346Z,99.99
2018-04-25T04:04:34.402Z,99.99
2018-04-25T04:05:34.461Z,99.89
2018-04-25T04:06:34.520Z,99.99
2018-04-25T04:07:34.578Z,99.98
2018-04-25T04:08:34.636Z,99.99
2018-04-25T04:09:34.694Z,99.69
2018-04-25T04:10:34.753Z,99.99
2018-04-25T04:11:34.812Z,99.99
2018-04-25T04:12:34.870Z,99.99
2018-04-25T04:13:34.927Z,99.99
2018-04-25T04:14:34.987Z,99.99
2018-04-25T04:15:35.046Z,99.99
2018-04-25T04:16:35.103Z,99.99
2018-04-25T04:17:35.161Z,99.99
2018-04-25T04:18:35.220Z,99.99
2018-04-25T04:19:35.278Z,99.99
2018-04-25T04:20:35.336Z,99.99
2018-04-25T04:21:35.992Z,99.99
2018-04-25T04:22:35.451Z,99.99
2018-04-25T04:23:35.511Z,99.99
2018-04-25T04:24:35.569Z,99.99
2018-04-25T04:25:35.627Z,99.99
2018-04-25T04:26:35.685Z,99.99
2018-04-25T04:27:35.744Z,99.99
2018-04-25T04:28:35.801Z,99.99
2018-04-25T04:29:35.860Z,99.99
2018-04-25T04:30:35.918Z,99.99
2018-04-25T04:31:35.976Z,99.99
2018-04-25T04:32:36.034Z,99.99
2018-04-25T04:33:36.093Z,99.99
2018-04-25T04:34:36.151Z,99.99
2018-04-25T04:35:36.210Z,99.99
2018-04-25T04:36:36.266Z,99.99
2018-04-25T04:37:36.325Z,99.99
2018-04-25T04:38:36.383Z,99.99
2018-04-25T04:39:36.443Z,99.99
2018-04-25T04:40:36.499Z,99.99
2018-04-25T04:41:36.558Z,99.99
2018-04-25T04:42:36.619Z,99.99
2018-04-25T04:43:36.676Z,99.99
2018-04-25T04:44:36.732Z,99.99
2018-04-25T04:45:36.790Z,99.99
2018-04-25T04:46:36.848Z,99.99
2018-04-25T04:47:36.907Z,99.99
2018-04-25T04:48:36.964Z,99.99
2018-04-25T04:49:37.116Z,99.99
2018-04-25T04:50:37.082Z,99.99
2018-04-25T04:51:37.141Z,99.99
2018-04-25T04:52:37.197Z,99.99
2018-04-25T04:53:37.256Z,99.99
2018-04-25T04:54:37.314Z,99.99
2018-04-25T04:55:37.373Z,99.99
2018-04-25T04:56:37.429Z,99.99
2018-04-25T04:57:37.489Z,99.99
2018-04-25T04:58:37.546Z,99.99
2018-04-25T04:59:37.677Z,99.99
2018-04-25T05:00:37.662Z,99.99
2018-04-25T05:01:37.722Z,99.99
2018-04-25T05:02:37.780Z,99.99
2018-04-25T05:03:37.838Z,99.99
2018-04-25T05:04:37.899Z,99.99
2018-04-25T05:05:37.955Z,99.99
2018-04-25T05:06:38.033Z,99.99
2018-04-25T05:07:38.071Z,99.99
2018-04-25T05:08:38.205Z,99.99
2018-04-25T05:09:38.187Z,99.99
2018-04-25T05:10:38.246Z,99.99
2018-04-25T05:11:38.303Z,99.99
2018-04-25T05:12:38.361Z,99.99
2018-04-25T05:13:38.421Z,99.99
2018-04-25T05:14:38.479Z,99.99
2018-04-25T05:15:38.536Z,99.99
2018-04-25T05:16:38.594Z,99.99
2018-04-25T05:17:38.653Z,99.99
2018-04-25T05:18:38.712Z,99.99
2018-04-25T05:19:38.776Z,99.99
2018-04-25T05:20:38.828Z,99.99
2018-04-25T05:21:38.886Z,99.99
2018-04-25T05:22:38.948Z,99.99
2018-04-25T05:23:39.003Z,99.99
2018-04-25T05:24:39.095Z,99.99
2018-04-25T05:25:39.123Z,99.99
2018-04-25T05:26:39.185Z,99.99
2018-04-25T05:27:39.239Z,99.99
2018-04-25T05:28:39.297Z,99.94
2018-04-25T05:29:39.358Z,99.99
2018-04-25T05:30:39.415Z,99.99
2018-04-25T05:31:39.475Z,99.99
2018-04-25T05:32:39.532Z,99.84
2018-04-25T05:33:39.591Z,99.99
2018-04-25T05:34:39.703Z,99.99
2018-04-25T05:35:39.717Z,99.99
2018-04-25T05:36:39.767Z,99.13
2018-04-25T05:37:39.826Z,99.70
2018-04-25T05:38:39.932Z,99.13
2018-04-25T05:39:39.948Z,98.89
2018-04-25T05:40:40.001Z,99.32
2018-04-25T05:41:40.060Z,99.41
2018-04-25T05:42:40.119Z,99.51
2018-04-25T05:43:40.179Z,99.99
2018-04-25T05:44:40.242Z,99.32
2018-04-25T05:45:40.296Z,98.65
2018-04-25T05:46:40.717Z,98.56
2018-04-25T05:47:40.426Z,99.89
2018-04-25T05:48:40.476Z,99.99
2018-04-25T05:49:40.533Z,99.99
2018-04-25T05:50:40.632Z,98.85
2018-04-25T05:51:40.666Z,98.65
2018-04-25T05:52:41.080Z,99.27
2018-04-25T05:53:40.771Z,99.27
2018-04-25T05:54:40.828Z,97.75
2018-04-25T05:55:40.888Z,98.13
2018-04-25T05:56:41.284Z,98.03
2018-04-25T05:57:41.005Z,97.08
2018-04-25T05:58:41.064Z,97.27
2018-04-25T05:59:41.123Z,97.08
2018-04-25T06:00:41.183Z,97.94
2018-04-25T06:01:41.241Z,97.94
2018-04-25T06:02:41.301Z,97.03
2018-04-25T06:03:41.360Z,96.84
2018-04-25T06:04:41.418Z,96.94
2018-04-25T06:05:41.478Z,96.27
2018-04-25T06:06:41.538Z,95.61
2018-04-25T06:07:41.597Z,96.56
2018-04-25T06:08:41.656Z,96.42
2018-04-25T06:09:41.718Z,94.98
2018-04-25T06:10:41.775Z,94.89
2018-04-25T06:11:41.835Z,94.79
2018-04-25T06:12:41.893Z,94.60
2018-04-25T06:13:41.960Z,93.65
2018-04-25T06:14:42.013Z,93.84
2018-04-25T06:15:42.073Z,94.31
2018-04-25T06:16:42.131Z,93.98
2018-04-25T06:17:42.190Z,93.60
2018-04-25T06:18:42.252Z,92.21
2018-04-25T06:19:42.311Z,91.64
2018-04-25T06:20:42.369Z,90.68
2018-04-25T06:21:42.430Z,89.58
2018-04-25T06:22:42.492Z,89.10
2018-04-25T06:23:42.551Z,88.43
2018-04-25T06:24:42.609Z,87.81
2018-04-25T06:25:42.992Z,87.81
2018-04-25T06:26:42.758Z,86.94
2018-04-25T06:27:42.792Z,86.57
2018-04-25T06:28:42.851Z,86.47
2018-04-25T06:29:42.912Z,86.28
2018-04-25T06:30:42.975Z,86.47
2018-04-25T06:31:43.033Z,85.13
2018-04-25T06:32:43.091Z,85.51
2018-04-25T06:33:43.154Z,85.61
2018-04-25T06:34:43.214Z,85.41
2018-04-25T06:35:43.764Z,84.84
2018-04-25T06:36:43.345Z,85.27
2018-04-25T06:37:43.398Z,85.13
2018-04-25T06:38:43.459Z,84.88
2018-04-25T06:39:43.520Z,84.69
2018-04-25T06:40:43.580Z,84.59
2018-04-25T06:41:43.642Z,84.75
2018-04-25T06:42:43.702Z,85.13
2018-04-25T06:43:43.763Z,85.51
2018-04-25T06:44:43.918Z,85.55
2018-04-25T06:45:43.885Z,85.17
2018-04-25T06:46:44.351Z,84.75
2018-04-25T06:47:44.007Z,84.79
2018-04-25T06:48:44.069Z,84.79
2018-04-25T06:49:44.132Z,84.79
2018-04-25T06:50:44.278Z,84.41
2018-04-25T06:51:44.253Z,83.93
2018-04-25T06:52:44.313Z,84.12
2018-04-25T06:53:44.373Z,84.22
2018-04-25T06:54:44.436Z,84.22
2018-04-25T06:55:44.537Z,84.02
2018-04-25T06:56:44.571Z,84.12
2018-04-25T06:57:44.619Z,84.41
2018-04-25T06:58:44.686Z,83.54
2018-04-25T06:59:44.846Z,84.12
2018-04-25T07:00:44.803Z,84.22
2018-04-25T07:01:44.867Z,84.22
2018-04-25T07:02:44.927Z,83.93
2018-04-25T07:03:44.989Z,84.31
2018-04-25T07:04:45.049Z,83.93
2018-04-25T07:05:45.112Z,83.45
2018-04-25T07:06:45.173Z,83.39
2018-04-25T07:07:45.234Z,83.45
2018-04-25T07:08:45.294Z,83.20
2018-04-25T07:09:45.360Z,82.92
2018-04-25T07:10:45.420Z,82.92
2018-04-25T07:11:45.479Z,83.20
2018-04-25T07:12:45.539Z,83.54
2018-04-25T07:13:45.603Z,83.78
2018-04-25T07:14:45.664Z,83.30
2018-04-25T07:15:45.755Z,82.82
2018-04-25T07:16:45.785Z,82.82
2018-04-25T07:17:45.847Z,82.24
2018-04-25T07:18:45.909Z,82.92
2018-04-25T07:19:45.971Z,82.34
2018-04-25T07:20:46.032Z,82.43
2018-04-25T07:21:46.092Z,82.43
2018-04-25T07:22:46.154Z,82.43
2018-04-25T07:23:46.241Z,82.24
2018-04-25T07:24:46.276Z,82.29
2018-04-25T07:25:46.339Z,82.15
2018-04-25T07:26:46.400Z,81.67
2018-04-25T07:27:46.462Z,81.96
2018-04-25T07:28:46.528Z,82.34
2018-04-25T07:29:46.584Z,82.06
2018-04-25T07:30:47.299Z,81.38
2018-04-25T07:31:46.707Z,81.00
2018-04-25T07:32:46.768Z,81.57
2018-04-25T07:33:46.831Z,81.96
2018-04-25T07:34:46.891Z,81.13
2018-04-25T07:35:46.954Z,80.47
2018-04-25T07:36:47.015Z,80.27
2018-04-25T07:37:47.077Z,79.70
2018-04-25T07:38:47.138Z,79.89
2018-04-25T07:39:47.199Z,78.97
2018-04-25T07:40:47.259Z,78.20
2018-04-25T07:41:47.418Z,78.20
2018-04-25T07:42:47.382Z,78.59
2018-04-25T07:43:47.445Z,78.59
2018-04-25T07:44:47.508Z,78.20
2018-04-25T07:45:47.568Z,77.63
2018-04-25T07:46:47.630Z,77.92
2018-04-25T07:47:47.693Z,77.25
2018-04-25T07:48:47.755Z,77.63
2018-04-25T07:49:47.815Z,77.73
2018-04-25T07:50:47.879Z,77.44
2018-04-25T07:51:47.944Z,77.44
2018-04-25T07:52:48.002Z,77.67
2018-04-25T07:53:48.062Z,76.81
2018-04-25T07:54:48.124Z,76.62
2018-04-25T07:55:48.187Z,76.27
2018-04-25T07:56:48.845Z,75.12
2018-04-25T07:57:48.377Z,74.29
2018-04-25T07:58:48.373Z,73.33
2018-04-25T07:59:48.435Z,73.08
2018-04-25T08:00:48.498Z,72.95
2018-04-25T08:01:48.561Z,73.39
2018-04-25T08:02:48.623Z,73.77
2018-04-25T08:03:48.687Z,73.81
2018-04-25T08:04:48.750Z,73.33
2018-04-25T08:05:48.812Z,74.10
2018-04-25T08:06:48.876Z,74.96
2018-04-25T08:07:48.939Z,74.48
2018-04-25T08:08:49.003Z,75.06
2018-04-25T08:09:49.065Z,74.77
2018-04-25T08:10:49.129Z,74.48
2018-04-25T08:11:49.192Z,74.19
2018-04-25T08:12:49.256Z,73.81
2018-04-25T08:13:49.319Z,73.58
2018-04-25T08:14:49.383Z,73.97
2018-04-25T08:15:49.447Z,74.83
2018-04-25T08:16:49.513Z,74.73
2018-04-25T08:17:49.588Z,75.75
2018-04-25T08:18:49.637Z,77.95
2018-04-25T08:19:49.701Z,78.63
2018-04-25T08:20:49.764Z,77.76
2018-04-25T08:21:49.827Z,78.44
2018-04-25T08:22:49.891Z,78.44
2018-04-25T08:23:50.049Z,78.34
2018-04-25T08:24:50.016Z,77.48
2018-04-25T08:25:50.080Z,77.58
2018-04-25T08:26:50.146Z,77.67
2018-04-25T08:27:50.207Z,77.00
2018-04-25T08:28:50.269Z,76.46
2018-04-25T08:29:50.333Z,76.52
2018-04-25T08:30:50.396Z,75.89
2018-04-25T08:31:51.005Z,76.07
2018-04-25T08:32:50.522Z,75.98
2018-04-25T08:33:50.585Z,75.40
2018-04-25T08:34:50.648Z,75.12
2018-04-25T08:35:50.714Z,75.40
2018-04-25T08:36:50.774Z,75.31
2018-04-25T08:37:50.839Z,74.93
2018-04-25T08:38:50.903Z,74.35
2018-04-25T08:39:50.964Z,74.35
2018-04-25T08:40:51.028Z,74.35
2018-04-25T08:41:51.101Z,74.35
2018-04-25T08:42:51.160Z,74.10
2018-04-25T08:43:51.225Z,74.06
2018-04-25T08:44:51.397Z,73.72
2018-04-25T08:45:51.345Z,73.72
2018-04-25T08:46:51.411Z,74.01
2018-04-25T08:47:51.474Z,74.73
2018-04-25T08:48:51.886Z,74.44
2018-04-25T08:49:51.603Z,74.54
2018-04-25T08:50:51.664Z,74.44
2018-04-25T08:51:51.729Z,74.35
2018-04-25T08:52:51.790Z,74.64
2018-04-25T08:53:51.856Z,74.89
2018-04-25T08:54:51.918Z,75.31
2018-04-25T08:55:51.997Z,74.89
2018-04-25T08:56:52.124Z,75.46
2018-04-25T08:57:52.146Z,75.31
2018-04-25T08:58:52.227Z,74.93
2018-04-25T08:59:52.244Z,74.73
2018-04-25T09:00:52.305Z,74.35
2018-04-25T09:01:52.396Z,74.16
2018-04-25T09:02:52.428Z,73.87
2018-04-25T09:03:52.507Z,73.68
2018-04-25T09:04:52.589Z,73.87
2018-04-25T09:05:52.668Z,74.54
2018-04-25T09:06:52.711Z,74.73
2018-04-25T09:07:52.767Z,74.06
2018-04-25T09:08:52.812Z,73.97
2018-04-25T09:09:53.254Z,74.16
2018-04-25T09:10:52.945Z,74.16
2018-04-25T09:11:53.001Z,74.35
2018-04-25T09:12:53.085Z,74.16
2018-04-25T09:13:53.126Z,74.06
2018-04-25T09:14:53.253Z,73.97
2018-04-25T09:15:53.257Z,73.87
2018-04-25T09:16:53.315Z,73.30
2018-04-25T09:17:53.394Z,73.58
2018-04-25T09:18:53.459Z,72.91
2018-04-25T09:19:53.540Z,72.91
2018-04-25T09:20:53.572Z,72.95
2018-04-25T09:21:53.647Z,73.14
2018-04-25T09:22:53.690Z,72.81
2018-04-25T09:23:53.762Z,73.68
2018-04-25T09:24:53.820Z,73.87
2018-04-25T09:25:53.881Z,73.52
2018-04-25T09:26:53.944Z,73.04
2018-04-25T09:27:54.010Z,72.75
2018-04-25T09:28:54.075Z,72.56
2018-04-25T09:29:54.134Z,72.28
2018-04-25T09:30:54.197Z,71.98
2018-04-25T09:31:54.261Z,72.28
2018-04-25T09:32:54.323Z,72.28
2018-04-25T09:33:54.386Z,72.43
2018-04-25T09:34:54.451Z,73.00
2018-04-25T09:35:54.516Z,73.35
2018-04-25T09:36:54.577Z,74.51
2018-04-25T09:37:54.641Z,74.44
2018-04-25T09:38:54.705Z,74.54
2018-04-25T09:39:54.769Z,73.49
2018-04-25T09:40:54.832Z,72.91
2018-04-25T09:41:54.896Z,72.53
2018-04-25T09:42:54.959Z,74.16
2018-04-25T09:43:55.334Z,74.93
2018-04-25T09:44:55.085Z,74.54
2018-04-25T09:45:55.155Z,74.83
2018-04-25T09:46:55.215Z,75.50
2018-04-25T09:47:55.276Z,75.02
2018-04-25T09:48:55.340Z,75.31
2018-04-25T09:49:55.402Z,75.50
2018-04-25T09:50:55.466Z,75.75
2018-04-25T09:51:55.634Z,75.37
2018-04-25T09:52:55.593Z,75.31
2018-04-25T09:53:56.311Z,75.21
2018-04-25T09:54:55.719Z,75.21
2018-04-25T09:55:55.784Z,74.93
2018-04-25T09:56:55.847Z,75.37
2018-04-25T09:57:56.059Z,76.14
2018-04-25T09:58:55.973Z,76.23
2018-04-25T09:59:56.036Z,76.71
2018-04-25T10:00:56.100Z,76.42
2018-04-25T10:01:56.163Z,76.32
2018-04-25T10:02:56.225Z,76.32
2018-04-25T10:03:56.355Z,76.62
2018-04-25T10:04:56.352Z,77.00
2018-04-25T10:05:56.415Z,77.76
2018-04-25T10:06:56.479Z,79.64
2018-04-25T10:07:56.578Z,81.23
2018-04-25T10:08:56.654Z,83.72
2018-04-25T10:09:56.667Z,84.20
2018-04-25T10:10:56.752Z,86.55
2018-04-25T10:11:56.798Z,87.61
2018-04-25T10:12:56.855Z,89.86
2018-04-25T10:13:56.924Z,91.39
2018-04-25T10:14:56.979Z,93.02
2018-04-25T10:15:57.043Z,93.88
2018-04-25T10:16:57.107Z,93.50
2018-04-25T10:17:57.167Z,93.50
2018-04-25T10:18:57.230Z,94.26
2018-04-25T10:19:57.293Z,94.55
2018-04-25T10:20:57.354Z,95.41
2018-04-25T10:21:57.415Z,96.47
2018-04-25T10:22:57.477Z,96.37
2018-04-25T10:23:57.561Z,96.75
2018-04-25T10:24:57.602Z,97.66
2018-04-25T10:25:57.664Z,96.99
2018-04-25T10:26:57.727Z,97.33
2018-04-25T10:27:57.788Z,96.94
2018-04-25T10:28:57.856Z,97.23
2018-04-25T10:29:57.911Z,97.66
2018-04-25T10:30:57.973Z,96.42
2018-04-25T10:31:58.057Z,97.56
2018-04-25T10:32:58.098Z,97.75
2018-04-25T10:33:58.157Z,97.08
2018-04-25T10:34:58.219Z,95.65
2018-04-25T10:35:58.286Z,95.36
2018-04-25T10:36:58.342Z,95.70
2018-04-25T10:37:58.403Z,96.18
2018-04-25T10:38:58.490Z,95.03
2018-04-25T10:39:59.280Z,96.18
2018-04-25T10:40:58.589Z,94.55
2018-04-25T10:41:58.652Z,94.74
2018-04-25T10:42:58.713Z,94.40
2018-04-25T10:43:58.776Z,94.02
2018-04-25T10:44:58.836Z,94.21
2018-04-25T10:45:58.901Z,94.31
2018-04-25T10:46:59.269Z,94.60
2018-04-25T10:47:59.038Z,92.97
2018-04-25T10:48:59.087Z,93.88
2018-04-25T10:49:59.148Z,93.49
2018-04-25T10:50:59.208Z,92.92
2018-04-25T10:51:59.273Z,92.15
2018-04-25T10:52:59.334Z,92.06
2018-04-25T10:53:59.396Z,92.44
2018-04-25T10:54:59.462Z,92.44
2018-04-25T10:55:59.524Z,92.78
2018-04-25T10:56:59.584Z,91.53
2018-04-25T10:57:59.647Z,90.96
2018-04-25T10:58:59.709Z,91.25
2018-04-25T10:59:59.773Z,91.63
2018-04-25T11:00:59.849Z,92.58
2018-04-25T11:01:59.921Z,92.11
2018-04-25T11:02:59.965Z,90.96
2018-04-25T11:04:00.025Z,90.96
2018-04-25T11:05:00.085Z,91.72
2018-04-25T11:06:00.160Z,91.63
2018-04-25T11:07:00.461Z,91.82
2018-04-25T11:08:00.275Z,89.81
2018-04-25T11:09:00.339Z,90.91
2018-04-25T11:10:00.400Z,91.39
2018-04-25T11:11:00.767Z,91.87
2018-04-25T11:12:00.522Z,92.25
2018-04-25T11:13:00.583Z,91.77
2018-04-25T11:14:00.657Z,91.15
2018-04-25T11:15:00.710Z,90.29
2018-04-25T11:16:00.773Z,91.72
2018-04-25T11:17:00.832Z,90.77
2018-04-25T11:18:00.894Z,90.96
2018-04-25T11:19:01.269Z,92.40
2018-04-25T11:20:01.025Z,91.63
2018-04-25T11:21:01.081Z,90.58
2018-04-25T11:22:01.458Z,90.86
2018-04-25T11:23:01.206Z,89.81
2018-04-25T11:24:01.269Z,89.43
2018-04-25T11:25:01.338Z,90.09
2018-04-25T11:26:01.395Z,87.99
2018-04-25T11:27:01.461Z,87.27
2018-04-25T11:28:02.121Z,83.81
2018-04-25T11:29:02.172Z,83.41
2018-04-25T11:30:01.646Z,79.71
2018-04-25T11:31:01.709Z,79.94
2018-04-25T11:32:01.774Z,77.50
2018-04-25T11:33:01.839Z,79.28
2018-04-25T11:34:01.901Z,81.79
2018-04-25T11:35:01.968Z,81.98
2018-04-25T11:36:02.034Z,81.51
2018-04-25T11:37:02.096Z,82.31
2018-04-25T11:38:02.160Z,83.33
2018-04-25T11:39:02.230Z,80.78
2018-04-25T11:40:02.293Z,79.36
2018-04-25T11:41:02.359Z,76.61
2018-04-25T11:42:02.421Z,77.11
2018-04-25T11:43:02.486Z,77.33
2018-04-25T11:44:02.557Z,79.14
2018-04-25T11:45:02.618Z,80.87
2018-04-25T11:46:02.684Z,80.78
2018-04-25T11:47:02.781Z,81.35
2018-04-25T11:48:03.018Z,77.90
2018-04-25T11:49:02.882Z,78.86
2018-04-25T11:50:02.951Z,79.96
2018-04-25T11:51:03.014Z,79.86
2018-04-25T11:52:03.079Z,78.99
2018-04-25T11:53:03.234Z,78.61
2018-04-25T11:54:03.210Z,77.59
2018-04-25T11:55:03.277Z,76.31
2018-04-25T11:56:03.343Z,76.59
2018-04-25T11:57:03.408Z,76.79
2018-04-25T11:58:03.477Z,76.98
2018-04-25T11:59:03.539Z,76.29
2018-04-25T12:00:03.606Z,74.55
2018-04-25T12:01:03.671Z,71.78
2018-04-25T12:02:03.738Z,69.06
2018-04-25T12:03:03.802Z,66.62
2018-04-25T12:04:03.868Z,66.65
2018-04-25T12:05:03.988Z,65.78
2018-04-25T12:06:04.000Z,65.05
2018-04-25T12:07:04.071Z,63.54
2018-04-25T12:08:04.136Z,63.37
2018-04-25T12:09:04.204Z,63.09
2018-04-25T12:10:04.270Z,61.74
2018-04-25T12:11:04.339Z,59.32
2018-04-25T12:12:04.405Z,59.52
2018-04-25T12:13:04.601Z,59.00
2018-04-25T12:14:04.547Z,59.42
2018-04-25T12:15:04.610Z,59.00
2018-04-25T12:16:04.681Z,60.97
2018-04-25T12:17:04.749Z,63.22
2018-04-25T12:18:04.818Z,66.65
2018-04-25T12:19:04.886Z,66.30
2018-04-25T12:20:04.969Z,65.53
2018-04-25T12:21:05.024Z,63.60
2018-04-25T12:22:05.093Z,62.29
2018-04-25T12:23:05.163Z,63.31
2018-04-25T12:24:05.232Z,64.53
2018-04-25T12:25:05.301Z,65.30
2018-04-25T12:26:05.370Z,66.10
2018-04-25T12:27:05.439Z,67.10
2018-04-25T12:28:05.508Z,67.86
2018-04-25T12:29:05.582Z,67.19
2018-04-25T12:30:05.645Z,66.55
2018-04-25T12:31:05.713Z,65.43
2018-04-25T12:32:05.782Z,65.50
2018-04-25T12:33:05.847Z,66.07
2018-04-25T12:34:05.916Z,66.97
2018-04-25T12:35:05.985Z,68.21
2018-04-25T12:36:06.052Z,69.18
2018-04-25T12:37:06.119Z,71.87
2018-04-25T12:38:06.186Z,71.80
2018-04-25T12:39:06.253Z,73.77
2018-04-25T12:40:06.320Z,75.12
2018-04-25T12:41:06.387Z,75.40
2018-04-25T12:42:06.454Z,76.27
2018-04-25T12:43:06.519Z,73.87
2018-04-25T12:44:06.586Z,74.10
2018-04-25T12:45:06.650Z,72.34
2018-04-25T12:46:06.715Z,68.03
2018-04-25T12:47:06.844Z,64.34
2018-04-25T12:48:06.847Z,61.68
2018-04-25T12:49:06.914Z,61.32
2018-04-25T12:50:06.980Z,59.23
2018-04-25T12:51:07.045Z,58.48
2018-04-25T12:52:07.112Z,57.87
2018-04-25T12:53:07.177Z,57.65